createdAt,value
2023-02-15T00:00:27.000Z,199
2023-02-15T00:01:43.000Z,203
2023-02-15T00:02:59.000Z,200
2023-02-15T00:04:15.000Z,203
2023-02-15T00:05:32.000Z,199
2023-02-15T00:06:48.000Z,199
2023-02-15T00:08:04.000Z,198
2023-02-15T00:09:20.000Z,198
2023-02-15T00:10:37.000Z,196
2023-02-15T00:11:53.000Z,196
2023-02-15T00:13:08.000Z,193
2023-02-15T00:14:24.000Z,188
2023-02-15T00:15:41.000Z,192
2023-02-15T00:16:57.000Z,205
2023-02-15T00:18:13.000Z,214
2023-02-15T00:19:29.000Z,218
2023-02-15T00:20:46.000Z,218
2023-02-15T00:22:02.000Z,215
2023-02-15T00:23:18.000Z,219
2023-02-15T00:24:34.000Z,214
2023-02-15T00:25:50.000Z,221
2023-02-15T00:27:07.000Z,223
2023-02-15T00:28:23.000Z,220
2023-02-15T00:29:38.000Z,210
2023-02-15T00:30:54.000Z,203
2023-02-15T00:32:11.000Z,205
2023-02-15T00:33:27.000Z,208
2023-02-15T00:34:43.000Z,211
2023-02-15T00:35:59.000Z,205
2023-02-15T00:37:16.000Z,210
2023-02-15T00:38:32.000Z,209
2023-02-15T00:39:48.000Z,208
2023-02-15T00:41:04.000Z,202
2023-02-15T00:42:20.000Z,200
2023-02-15T00:43:35.000Z,206
2023-02-15T00:44:51.000Z,204
2023-02-15T00:46:07.000Z,200
2023-02-15T00:47:23.000Z,206
2023-02-15T00:48:38.000Z,203
2023-02-15T00:49:54.000Z,200
2023-02-15T00:51:10.000Z,206
2023-02-15T00:52:26.000Z,210
2023-02-15T00:53:43.000Z,210
2023-02-15T00:54:59.000Z,203
2023-02-15T00:56:15.000Z,201
2023-02-15T00:57:31.000Z,203
2023-02-15T00:58:48.000Z,208
2023-02-15T01:00:04.000Z,202
2023-02-15T01:01:20.000Z,204
2023-02-15T01:02:36.000Z,208
2023-02-15T01:03:53.000Z,209
2023-02-15T01:05:08.000Z,213
2023-02-15T01:06:24.000Z,214
2023-02-15T01:07:40.000Z,213
2023-02-15T01:08:57.000Z,213
2023-02-15T01:10:13.000Z,212
2023-02-15T01:11:29.000Z,211
2023-02-15T01:12:45.000Z,214
2023-02-15T01:14:01.000Z,213
2023-02-15T01:15:16.000Z,210
2023-02-15T01:16:31.000Z,214
2023-02-15T01:17:46.000Z,212
2023-02-15T01:19:03.000Z,213
2023-02-15T01:20:19.000Z,206
2023-02-15T01:21:35.000Z,208
2023-02-15T01:22:51.000Z,212
2023-02-15T01:24:07.000Z,208
2023-02-15T01:26:40.000Z,214
2023-02-15T01:27:56.000Z,214
2023-02-15T01:29:12.000Z,208
2023-02-15T01:30:29.000Z,204
2023-02-15T01:31:45.000Z,207
2023-02-15T01:33:00.000Z,210
2023-02-15T01:34:16.000Z,206
2023-02-15T01:35:33.000Z,206
2023-02-15T01:36:49.000Z,207
2023-02-15T01:38:05.000Z,203
2023-02-15T01:39:21.000Z,207
2023-02-15T01:40:38.000Z,203
2023-02-15T01:41:54.000Z,211
2023-02-15T01:43:10.000Z,210
2023-02-15T01:44:25.000Z,210
2023-02-15T01:45:41.000Z,216
2023-02-15T01:46:56.000Z,231
2023-02-15T01:48:11.000Z,222
2023-02-15T01:49:27.000Z,221
2023-02-15T01:50:44.000Z,224
2023-02-15T01:52:00.000Z,221
2023-02-15T01:53:16.000Z,217
2023-02-15T01:54:32.000Z,214
2023-02-15T01:55:48.000Z,220
2023-02-15T01:57:05.000Z,219
2023-02-15T01:58:21.000Z,218
2023-02-15T01:59:37.000Z,215
2023-02-15T02:00:53.000Z,211
2023-02-15T02:02:10.000Z,214
2023-02-15T02:03:26.000Z,217
2023-02-15T02:04:41.000Z,215
2023-02-15T02:05:57.000Z,219
2023-02-15T02:07:14.000Z,217
2023-02-15T02:08:30.000Z,218
2023-02-15T02:09:46.000Z,220
2023-02-15T02:11:02.000Z,218
2023-02-15T02:12:19.000Z,214
2023-02-15T02:13:35.000Z,215
2023-02-15T02:14:51.000Z,207
2023-02-15T02:16:07.000Z,209
2023-02-15T02:17:23.000Z,206
2023-02-15T02:18:40.000Z,208
2023-02-15T02:19:56.000Z,206
2023-02-15T02:21:11.000Z,217
2023-02-15T02:22:27.000Z,213
2023-02-15T02:23:44.000Z,218
2023-02-15T02:25:00.000Z,217
2023-02-15T02:26:16.000Z,211
2023-02-15T02:27:32.000Z,213
2023-02-15T02:28:49.000Z,212
2023-02-15T02:30:05.000Z,209
2023-02-15T02:31:21.000Z,205
2023-02-15T02:32:37.000Z,204
2023-02-15T02:33:54.000Z,197
2023-02-15T02:35:10.000Z,197
2023-02-15T02:36:26.000Z,193
2023-02-15T02:37:41.000Z,191
2023-02-15T02:38:57.000Z,192
2023-02-15T02:40:14.000Z,187
2023-02-15T02:41:30.000Z,194
2023-02-15T02:42:46.000Z,194
2023-02-15T02:44:02.000Z,190
2023-02-15T02:45:19.000Z,186
2023-02-15T02:46:35.000Z,190
2023-02-15T02:47:51.000Z,194
2023-02-15T02:49:06.000Z,194
2023-02-15T02:50:22.000Z,194
2023-02-15T02:51:38.000Z,191
2023-02-15T02:52:54.000Z,194
2023-02-15T02:54:10.000Z,197
2023-02-15T02:55:26.000Z,207
2023-02-15T02:56:41.000Z,205
2023-02-15T02:57:57.000Z,209
2023-02-15T02:59:13.000Z,206
2023-02-15T03:00:30.000Z,206
2023-02-15T03:01:46.000Z,204
2023-02-15T03:03:02.000Z,200
2023-02-15T03:04:18.000Z,197
2023-02-15T03:05:34.000Z,202
2023-02-15T03:06:51.000Z,205
2023-02-15T03:08:07.000Z,203
2023-02-15T03:09:23.000Z,205
2023-02-15T03:10:39.000Z,203
2023-02-15T03:11:56.000Z,195
2023-02-15T03:13:11.000Z,198
2023-02-15T03:14:27.000Z,201
2023-02-15T03:15:43.000Z,197
2023-02-15T03:17:00.000Z,193
2023-02-15T03:18:16.000Z,197
2023-02-15T03:19:32.000Z,194
2023-02-15T03:20:48.000Z,194
2023-02-15T03:22:04.000Z,195
2023-02-15T03:23:19.000Z,198
2023-02-15T03:24:34.000Z,198
2023-02-15T03:25:49.000Z,197
2023-02-15T03:27:06.000Z,195
2023-02-15T03:28:22.000Z,191
2023-02-15T03:29:38.000Z,197
2023-02-15T03:30:54.000Z,197
2023-02-15T03:33:27.000Z,203
2023-02-15T03:34:43.000Z,202
2023-02-15T03:35:59.000Z,202
2023-02-15T03:37:15.000Z,199
2023-02-15T03:38:32.000Z,193
2023-02-15T03:39:48.000Z,195
2023-02-15T03:41:04.000Z,201
2023-02-15T03:42:20.000Z,197
2023-02-15T03:43:36.000Z,194
2023-02-15T03:44:52.000Z,197
2023-02-15T03:46:08.000Z,196
2023-02-15T03:47:24.000Z,192
2023-02-15T03:48:41.000Z,193
2023-02-15T03:49:57.000Z,188
2023-02-15T03:51:13.000Z,193
2023-02-15T03:52:28.000Z,192
2023-02-15T03:53:44.000Z,188
2023-02-15T03:55:00.000Z,186
2023-02-15T03:56:15.000Z,186
2023-02-15T03:57:30.000Z,185
2023-02-15T03:58:47.000Z,180
2023-02-15T04:00:03.000Z,177
2023-02-15T04:01:19.000Z,178
2023-02-15T04:02:35.000Z,178
2023-02-15T04:03:51.000Z,180
2023-02-15T04:05:08.000Z,179
2023-02-15T04:06:24.000Z,176
2023-02-15T04:07:40.000Z,176
2023-02-15T04:08:56.000Z,175
2023-02-15T04:10:13.000Z,170
2023-02-15T04:11:29.000Z,165
2023-02-15T04:12:45.000Z,168
2023-02-15T04:14:00.000Z,168
2023-02-15T04:15:17.000Z,170
2023-02-15T04:16:33.000Z,167
2023-02-15T04:17:49.000Z,165
2023-02-15T04:19:05.000Z,160
2023-02-15T04:20:22.000Z,164
2023-02-15T04:21:38.000Z,165
2023-02-15T04:22:53.000Z,164
2023-02-15T04:24:08.000Z,163
2023-02-15T04:25:25.000Z,160
2023-02-15T04:26:41.000Z,163
2023-02-15T04:27:57.000Z,162
2023-02-15T04:29:13.000Z,161
2023-02-15T04:30:29.000Z,155
2023-02-15T04:31:44.000Z,146
2023-02-15T04:33:00.000Z,150
2023-02-15T04:34:16.000Z,144
2023-02-15T04:35:32.000Z,141
2023-02-15T04:36:49.000Z,144
2023-02-15T04:38:05.000Z,144
2023-02-15T04:39:21.000Z,145
2023-02-15T04:40:37.000Z,142
2023-02-15T04:41:54.000Z,142
2023-02-15T04:43:10.000Z,142
2023-02-15T04:44:26.000Z,144
2023-02-15T04:45:42.000Z,141
2023-02-15T04:46:59.000Z,141
2023-02-15T04:48:14.000Z,143
2023-02-15T04:49:30.000Z,142
2023-02-15T04:50:46.000Z,140
2023-02-15T04:52:03.000Z,143
2023-02-15T04:53:19.000Z,141
2023-02-15T04:54:35.000Z,138
2023-02-15T04:55:51.000Z,137
2023-02-15T04:57:07.000Z,137
2023-02-15T04:58:22.000Z,138
2023-02-15T04:59:38.000Z,140
2023-02-15T05:00:54.000Z,140
2023-02-15T05:02:09.000Z,138
2023-02-15T05:03:25.000Z,134
2023-02-15T05:04:41.000Z,137
2023-02-15T05:05:57.000Z,140
2023-02-15T05:07:13.000Z,133
2023-02-15T05:08:30.000Z,135
2023-02-15T05:09:46.000Z,136
2023-02-15T05:11:02.000Z,137
2023-02-15T05:12:18.000Z,138
2023-02-15T05:13:35.000Z,137
2023-02-15T05:14:51.000Z,132
2023-02-15T05:16:07.000Z,131
2023-02-15T05:17:23.000Z,132
2023-02-15T05:18:40.000Z,136
2023-02-15T05:19:55.000Z,131
2023-02-15T05:21:11.000Z,127
2023-02-15T05:22:27.000Z,127
2023-02-15T05:23:44.000Z,122
2023-02-15T05:25:00.000Z,128
2023-02-15T05:26:16.000Z,126
2023-02-15T05:27:32.000Z,123
2023-02-15T05:28:47.000Z,125
2023-02-15T05:30:03.000Z,127
2023-02-15T05:31:18.000Z,129
2023-02-15T05:32:33.000Z,127
2023-02-15T05:33:49.000Z,128
2023-02-15T05:35:06.000Z,129
2023-02-15T05:36:22.000Z,127
2023-02-15T05:37:38.000Z,130
2023-02-15T05:38:54.000Z,127
2023-02-15T05:40:11.000Z,127
2023-02-15T05:41:27.000Z,129
2023-02-15T05:42:43.000Z,131
2023-02-15T05:43:59.000Z,130
2023-02-15T05:45:16.000Z,132
2023-02-15T05:46:32.000Z,135
2023-02-15T05:47:47.000Z,135
2023-02-15T05:49:03.000Z,134
2023-02-15T05:50:20.000Z,130
2023-02-15T05:51:36.000Z,133
2023-02-15T05:52:52.000Z,130
2023-02-15T05:54:08.000Z,131
2023-02-15T05:55:24.000Z,134
2023-02-15T05:56:41.000Z,135
2023-02-15T05:57:57.000Z,135
2023-02-15T05:59:13.000Z,136
2023-02-15T06:00:29.000Z,133
2023-02-15T06:01:46.000Z,137
2023-02-15T06:03:02.000Z,136
2023-02-15T06:04:17.000Z,136
2023-02-15T06:05:33.000Z,132
2023-02-15T06:06:50.000Z,133
2023-02-15T06:08:06.000Z,135
2023-02-15T06:09:22.000Z,137
2023-02-15T06:10:38.000Z,138
2023-02-15T06:11:55.000Z,138
2023-02-15T06:13:11.000Z,136
2023-02-15T06:14:27.000Z,138
2023-02-15T06:15:43.000Z,137
2023-02-15T06:16:59.000Z,142
2023-02-15T06:18:16.000Z,142
2023-02-15T06:19:32.000Z,141
2023-02-15T06:20:47.000Z,143
2023-02-15T06:22:03.000Z,150
2023-02-15T06:23:20.000Z,114
2023-02-15T06:24:36.000Z,9
2023-02-15T06:25:52.000Z,12
2023-02-15T06:28:25.000Z,15
2023-02-15T06:29:41.000Z,19
2023-02-15T06:30:57.000Z,24
2023-02-15T06:32:13.000Z,32
2023-02-15T06:33:30.000Z,40
2023-02-15T06:34:46.000Z,49
2023-02-15T06:36:02.000Z,59
2023-02-15T06:37:17.000Z,76
2023-02-15T06:38:34.000Z,89
2023-02-15T06:39:50.000Z,103
2023-02-15T06:41:06.000Z,125
2023-02-15T06:42:22.000Z,147
2023-02-15T06:43:38.000Z,169
2023-02-15T06:44:55.000Z,193
2023-02-15T06:46:11.000Z,224
2023-02-15T06:47:26.000Z,250
2023-02-15T06:48:41.000Z,283
2023-02-15T06:49:57.000Z,316
2023-02-15T06:51:12.000Z,350
2023-02-15T06:52:28.000Z,387
2023-02-15T06:53:44.000Z,421
2023-02-15T06:55:01.000Z,460
2023-02-15T06:56:17.000Z,500
2023-02-15T06:57:33.000Z,537
2023-02-15T06:58:49.000Z,571
2023-02-15T07:00:06.000Z,608
2023-02-15T07:01:22.000Z,642
2023-02-15T07:02:38.000Z,679
2023-02-15T07:03:54.000Z,714
2023-02-15T07:05:11.000Z,751
2023-02-15T07:06:27.000Z,791
2023-02-15T07:07:42.000Z,826
2023-02-15T07:08:58.000Z,864
2023-02-15T07:11:31.000Z,941
2023-02-15T07:12:47.000Z,978
2023-02-15T07:14:03.000Z,1016
2023-02-15T07:15:19.000Z,1055
2023-02-15T07:16:36.000Z,1092
2023-02-15T07:17:51.000Z,1131
2023-02-15T07:19:06.000Z,1172
2023-02-15T07:20:22.000Z,1216
2023-02-15T07:21:39.000Z,1271
2023-02-15T07:22:55.000Z,1363
2023-02-15T07:24:11.000Z,443
2023-02-15T07:25:26.000Z,1977
2023-02-15T07:26:42.000Z,1983
2023-02-15T07:27:58.000Z,1735
2023-02-15T07:29:14.000Z,1737
2023-02-15T07:30:30.000Z,1675
2023-02-15T07:31:47.000Z,1634
2023-02-15T07:33:03.000Z,1630
2023-02-15T07:34:19.000Z,1628
2023-02-15T07:35:35.000Z,1671
2023-02-15T07:36:52.000Z,1758
2023-02-15T07:38:08.000Z,1870
2023-02-15T07:39:24.000Z,1966
2023-02-15T07:40:40.000Z,1795
2023-02-15T07:41:56.000Z,1233
2023-02-15T07:43:13.000Z,2291
2023-02-15T07:44:28.000Z,2927
2023-02-15T07:45:44.000Z,2060
2023-02-15T07:47:00.000Z,2006
2023-02-15T07:48:17.000Z,2072
2023-02-15T07:49:33.000Z,2132
2023-02-15T07:50:49.000Z,1457
2023-02-15T07:52:05.000Z,2908
2023-02-15T07:53:22.000Z,2507
2023-02-15T07:54:38.000Z,2387
2023-02-15T07:55:54.000Z,2374
2023-02-15T07:57:10.000Z,2317
2023-02-15T07:58:27.000Z,2295
2023-02-15T07:59:43.000Z,2220
2023-02-15T08:00:58.000Z,2212
2023-02-15T08:02:14.000Z,2261
2023-02-15T08:03:30.000Z,2243
2023-02-15T08:04:47.000Z,2161
2023-02-15T08:06:03.000Z,2151
2023-02-15T08:07:19.000Z,2165
2023-02-15T08:08:35.000Z,2178
2023-02-15T08:09:52.000Z,2192
2023-02-15T08:11:08.000Z,2210
2023-02-15T08:12:23.000Z,2220
2023-02-15T08:13:38.000Z,2239
2023-02-15T08:14:55.000Z,2264
2023-02-15T08:16:10.000Z,2287
2023-02-15T08:17:25.000Z,2311
2023-02-15T08:18:41.000Z,2350
2023-02-15T08:19:58.000Z,2383
2023-02-15T08:21:14.000Z,2411
2023-02-15T08:22:30.000Z,2433
2023-02-15T08:23:46.000Z,2441
2023-02-15T08:25:03.000Z,2456
2023-02-15T08:26:19.000Z,2481
2023-02-15T08:27:35.000Z,2500
2023-02-15T08:28:51.000Z,2514
2023-02-15T08:30:07.000Z,2519
2023-02-15T08:31:24.000Z,2530
2023-02-15T08:32:40.000Z,2537
2023-02-15T08:33:55.000Z,2539
2023-02-15T08:35:11.000Z,2526
2023-02-15T08:36:28.000Z,2522
2023-02-15T08:37:44.000Z,2529
2023-02-15T08:39:00.000Z,2512
2023-02-15T08:40:16.000Z,2461
2023-02-15T08:41:33.000Z,2446
2023-02-15T08:42:48.000Z,2486
2023-02-15T08:44:03.000Z,2517
2023-02-15T08:45:19.000Z,2565
2023-02-15T08:46:36.000Z,2602
2023-02-15T08:47:52.000Z,2633
2023-02-15T08:49:08.000Z,2657
2023-02-15T08:50:23.000Z,2681
2023-02-15T08:51:40.000Z,2689
2023-02-15T08:52:55.000Z,2668
2023-02-15T08:54:11.000Z,2660
2023-02-15T08:55:27.000Z,2712
2023-02-15T08:56:43.000Z,2773
2023-02-15T08:58:00.000Z,2793
2023-02-15T08:59:16.000Z,2807
2023-02-15T09:00:32.000Z,2832
2023-02-15T09:01:48.000Z,2850
2023-02-15T09:03:05.000Z,2862
2023-02-15T09:04:21.000Z,2872
2023-02-15T09:05:37.000Z,2876
2023-02-15T09:06:53.000Z,2879
2023-02-15T09:08:10.000Z,2901
2023-02-15T09:09:25.000Z,2928
2023-02-15T09:10:41.000Z,2957
2023-02-15T09:11:57.000Z,2978
2023-02-15T09:13:14.000Z,2997
2023-02-15T09:14:30.000Z,3016
2023-02-15T09:15:46.000Z,3030
2023-02-15T09:17:01.000Z,3039
2023-02-15T09:18:17.000Z,3048
2023-02-15T09:19:32.000Z,3063
2023-02-15T09:20:47.000Z,3084
2023-02-15T09:22:03.000Z,3121
2023-02-15T09:23:20.000Z,3157
2023-02-15T09:24:36.000Z,3180
2023-02-15T09:25:52.000Z,3200
2023-02-15T09:27:08.000Z,3213
2023-02-15T09:28:24.000Z,3229
2023-02-15T09:29:41.000Z,3237
2023-02-15T09:30:57.000Z,3231
2023-02-15T09:32:13.000Z,3224
2023-02-15T09:33:29.000Z,3198
2023-02-15T09:34:46.000Z,3158
2023-02-15T09:36:02.000Z,3173
2023-02-15T09:37:17.000Z,3254
2023-02-15T09:38:33.000Z,3313
2023-02-15T09:39:50.000Z,3301
2023-02-15T09:41:06.000Z,3281
2023-02-15T09:42:22.000Z,3303
2023-02-15T09:43:38.000Z,3313
2023-02-15T09:44:55.000Z,3313
2023-02-15T09:46:11.000Z,3330
2023-02-15T09:47:27.000Z,3342
2023-02-15T09:48:43.000Z,3346
2023-02-15T09:49:59.000Z,3362
2023-02-15T09:51:16.000Z,3391
2023-02-15T09:52:32.000Z,3414
2023-02-15T09:53:47.000Z,3437
2023-02-15T09:55:03.000Z,3464
2023-02-15T09:56:20.000Z,3494
2023-02-15T09:57:36.000Z,3513
2023-02-15T09:58:52.000Z,3525
2023-02-15T10:00:08.000Z,3542
2023-02-15T10:01:25.000Z,3554
2023-02-15T10:02:40.000Z,3569
2023-02-15T10:03:56.000Z,3581
2023-02-15T10:05:12.000Z,3598
2023-02-15T10:06:29.000Z,3624
2023-02-15T10:07:45.000Z,3653
2023-02-15T10:09:01.000Z,3669
2023-02-15T10:10:17.000Z,3676
2023-02-15T10:11:33.000Z,3653
2023-02-15T10:12:50.000Z,3615
2023-02-15T10:14:06.000Z,3585
2023-02-15T10:15:22.000Z,3557
2023-02-15T10:16:38.000Z,3549
2023-02-15T10:17:55.000Z,3558
2023-02-15T10:19:10.000Z,3559
2023-02-15T10:20:26.000Z,3553
2023-02-15T10:21:42.000Z,3543
2023-02-15T10:22:59.000Z,3542
2023-02-15T10:24:15.000Z,3539
2023-02-15T10:25:31.000Z,3524
2023-02-15T10:26:47.000Z,3529
2023-02-15T10:28:04.000Z,3537
2023-02-15T10:29:20.000Z,3541
2023-02-15T10:30:36.000Z,3538
2023-02-15T10:31:52.000Z,3519
2023-02-15T10:33:08.000Z,3514
2023-02-15T10:34:25.000Z,3546
2023-02-15T10:35:40.000Z,3562
2023-02-15T10:36:56.000Z,3581
2023-02-15T10:39:29.000Z,3615
2023-02-15T10:40:45.000Z,3624
2023-02-15T10:42:01.000Z,3636
2023-02-15T10:43:17.000Z,3648
2023-02-15T10:44:34.000Z,3654
2023-02-15T10:45:50.000Z,3675
2023-02-15T10:47:06.000Z,3714
2023-02-15T10:48:22.000Z,3748
2023-02-15T10:49:39.000Z,3767
2023-02-15T10:50:54.000Z,3773
2023-02-15T10:52:09.000Z,3803
2023-02-15T10:53:25.000Z,3850
2023-02-15T10:54:41.000Z,3897
2023-02-15T10:55:56.000Z,3943
2023-02-15T10:57:12.000Z,3995
2023-02-15T10:58:28.000Z,4037
2023-02-15T10:59:44.000Z,4095
2023-02-15T11:01:01.000Z,4143
2023-02-15T11:02:17.000Z,4168
2023-02-15T11:03:33.000Z,4244
2023-02-15T11:04:49.000Z,4346
2023-02-15T11:06:06.000Z,4436
2023-02-15T11:07:22.000Z,4526
2023-02-15T11:08:38.000Z,4639
2023-02-15T11:09:54.000Z,4727
2023-02-15T11:11:11.000Z,4782
2023-02-15T11:12:26.000Z,4841
2023-02-15T11:13:42.000Z,4889
2023-02-15T11:14:58.000Z,4927
2023-02-15T11:16:15.000Z,4971
2023-02-15T11:17:31.000Z,4980
2023-02-15T11:18:47.000Z,4933
2023-02-15T11:20:03.000Z,4855
2023-02-15T11:21:19.000Z,4771
2023-02-15T11:22:36.000Z,4751
2023-02-15T11:23:52.000Z,4808
2023-02-15T11:25:08.000Z,4929
2023-02-15T11:26:24.000Z,5139
2023-02-15T11:27:41.000Z,5290
2023-02-15T11:28:56.000Z,5393
2023-02-15T11:30:12.000Z,5432
2023-02-15T11:31:28.000Z,5404
2023-02-15T11:32:45.000Z,5422
2023-02-15T11:34:01.000Z,5454
2023-02-15T11:35:17.000Z,5491
2023-02-15T11:36:33.000Z,5484
2023-02-15T11:37:50.000Z,5409
2023-02-15T11:39:06.000Z,5332
2023-02-15T11:40:22.000Z,5304
2023-02-15T11:41:38.000Z,5319
2023-02-15T11:42:54.000Z,5376
2023-02-15T11:44:11.000Z,5412
2023-02-15T11:45:26.000Z,5401
2023-02-15T11:46:41.000Z,5430
2023-02-15T11:47:57.000Z,5462
2023-02-15T11:49:14.000Z,5488
2023-02-15T11:50:30.000Z,5500
2023-02-15T11:51:45.000Z,5459
2023-02-15T11:53:00.000Z,5433
2023-02-15T11:54:17.000Z,5417
2023-02-15T11:55:33.000Z,5419
2023-02-15T11:56:49.000Z,5386
2023-02-15T11:58:05.000Z,5285
2023-02-15T11:59:22.000Z,5182
2023-02-15T12:00:38.000Z,5106
2023-02-15T12:01:54.000Z,5073
2023-02-15T12:03:10.000Z,5099
2023-02-15T12:04:27.000Z,5134
2023-02-15T12:05:43.000Z,5127
2023-02-15T12:06:59.000Z,5127
2023-02-15T12:08:15.000Z,5144
2023-02-15T12:09:30.000Z,5159
2023-02-15T12:10:47.000Z,5149
2023-02-15T12:12:03.000Z,5136
2023-02-15T12:13:19.000Z,5148
2023-02-15T12:14:35.000Z,5153
2023-02-15T12:15:52.000Z,5158
2023-02-15T12:17:08.000Z,5184
2023-02-15T12:18:23.000Z,5223
2023-02-15T12:19:38.000Z,5257
2023-02-15T12:20:55.000Z,5271
2023-02-15T12:22:11.000Z,5283
2023-02-15T12:23:26.000Z,5309
2023-02-15T12:24:41.000Z,5338
2023-02-15T12:25:58.000Z,5346
2023-02-15T12:27:14.000Z,5334
2023-02-15T12:28:30.000Z,5318
2023-02-15T12:29:46.000Z,5313
2023-02-15T12:31:03.000Z,5296
2023-02-15T12:32:19.000Z,5267
2023-02-15T12:33:35.000Z,5257
2023-02-15T12:34:51.000Z,5269
2023-02-15T12:36:07.000Z,5275
2023-02-15T12:37:24.000Z,5248
2023-02-15T12:38:40.000Z,5189
2023-02-15T12:39:56.000Z,5112
2023-02-15T12:41:11.000Z,5071
2023-02-15T12:42:28.000Z,5103
2023-02-15T12:43:44.000Z,5136
2023-02-15T12:45:00.000Z,5185
2023-02-15T12:46:16.000Z,5201
2023-02-15T12:47:33.000Z,5202
2023-02-15T12:48:49.000Z,5223
2023-02-15T12:50:04.000Z,5241
2023-02-15T12:51:19.000Z,5248
2023-02-15T12:52:36.000Z,5258
2023-02-15T12:53:51.000Z,5258
2023-02-15T12:55:06.000Z,5238
2023-02-15T12:56:22.000Z,5215
2023-02-15T12:57:39.000Z,5190
2023-02-15T12:58:55.000Z,5155
2023-02-15T13:00:11.000Z,5140
2023-02-15T13:01:27.000Z,5168
2023-02-15T13:02:44.000Z,5159
2023-02-15T13:04:00.000Z,5119
2023-02-15T13:05:16.000Z,5065
2023-02-15T13:06:32.000Z,5023
2023-02-15T13:07:48.000Z,4984
2023-02-15T13:09:05.000Z,4946
2023-02-15T13:10:21.000Z,4911
2023-02-15T13:11:36.000Z,4868
2023-02-15T13:12:52.000Z,4825
2023-02-15T13:14:09.000Z,4782
2023-02-15T13:15:25.000Z,4769
2023-02-15T13:16:41.000Z,4749
2023-02-15T13:17:57.000Z,4717
2023-02-15T13:20:30.000Z,4672
2023-02-15T13:21:46.000Z,4639
2023-02-15T13:23:02.000Z,4640
2023-02-15T13:24:18.000Z,4714
2023-02-15T13:25:35.000Z,4775
2023-02-15T13:26:51.000Z,4779
2023-02-15T13:28:06.000Z,4750
2023-02-15T13:29:22.000Z,4709
2023-02-15T13:30:39.000Z,4694
2023-02-15T13:31:55.000Z,4697
2023-02-15T13:33:11.000Z,4705
2023-02-15T13:34:27.000Z,4689
2023-02-15T13:35:44.000Z,4658
2023-02-15T13:37:00.000Z,4654
2023-02-15T13:38:16.000Z,4667
2023-02-15T13:39:32.000Z,4679
2023-02-15T13:40:49.000Z,4706
2023-02-15T13:42:05.000Z,4721
2023-02-15T13:43:21.000Z,4740
2023-02-15T13:45:53.000Z,4807
2023-02-15T13:47:08.000Z,4859
2023-02-15T13:48:23.000Z,4887
2023-02-15T13:49:38.000Z,4893
2023-02-15T13:52:10.000Z,4918
2023-02-15T13:53:26.000Z,4962
2023-02-15T13:54:42.000Z,5010
2023-02-15T13:55:58.000Z,5037
2023-02-15T13:57:15.000Z,5068
2023-02-15T13:58:31.000Z,5045
2023-02-15T13:59:47.000Z,4947
2023-02-15T14:01:03.000Z,4844
2023-02-15T14:02:20.000Z,4797
2023-02-15T14:03:36.000Z,4841
2023-02-15T14:04:52.000Z,4987
2023-02-15T14:06:08.000Z,5050
2023-02-15T14:07:24.000Z,5059
2023-02-15T14:08:40.000Z,5045
2023-02-15T14:09:56.000Z,4986
2023-02-15T14:11:12.000Z,4905
2023-02-15T14:12:29.000Z,4891
2023-02-15T14:13:45.000Z,4931
2023-02-15T14:15:01.000Z,4959
2023-02-15T14:16:17.000Z,4946
2023-02-15T14:17:32.000Z,4910
2023-02-15T14:18:49.000Z,4857
2023-02-15T14:20:05.000Z,4850
2023-02-15T14:21:21.000Z,4902
2023-02-15T14:22:37.000Z,4910
2023-02-15T14:23:54.000Z,4941
2023-02-15T14:25:10.000Z,4928
2023-02-15T14:26:26.000Z,4876
2023-02-15T14:27:42.000Z,4840
2023-02-15T14:28:59.000Z,4842
2023-02-15T14:30:15.000Z,4854
2023-02-15T14:31:31.000Z,4884
2023-02-15T14:32:47.000Z,4882
2023-02-15T14:34:03.000Z,5128
2023-02-15T14:35:19.000Z,5121
2023-02-15T14:36:35.000Z,5086
2023-02-15T14:37:51.000Z,5010
2023-02-15T14:39:07.000Z,4899
2023-02-15T14:40:24.000Z,4729
2023-02-15T14:41:40.000Z,4815
2023-02-15T14:42:56.000Z,4902
2023-02-15T14:44:12.000Z,5066
2023-02-15T14:45:29.000Z,5310
2023-02-15T14:46:45.000Z,5105
2023-02-15T14:48:00.000Z,5178
2023-02-15T14:49:15.000Z,5211
2023-02-15T14:50:31.000Z,5165
2023-02-15T14:51:46.000Z,5216
2023-02-15T14:53:02.000Z,5081
2023-02-15T14:54:18.000Z,5192
2023-02-15T14:55:35.000Z,5266
2023-02-15T14:56:51.000Z,5265
2023-02-15T14:58:07.000Z,5374
2023-02-15T14:59:23.000Z,5323
2023-02-15T15:00:40.000Z,5247
2023-02-15T15:01:56.000Z,5252
2023-02-15T15:03:12.000Z,5152
2023-02-15T15:04:28.000Z,5197
2023-02-15T15:05:44.000Z,5006
2023-02-15T15:07:01.000Z,4748
2023-02-15T15:08:16.000Z,4581
2023-02-15T15:09:32.000Z,4499
2023-02-15T15:10:48.000Z,4337
2023-02-15T15:12:05.000Z,4196
2023-02-15T15:13:21.000Z,4091
2023-02-15T15:14:37.000Z,3936
2023-02-15T15:15:53.000Z,3822
2023-02-15T15:17:10.000Z,3706
2023-02-15T15:18:26.000Z,3637
2023-02-15T15:19:42.000Z,3518
2023-02-15T15:20:58.000Z,3402
2023-02-15T15:22:15.000Z,3306
2023-02-15T15:23:31.000Z,3207
2023-02-15T15:24:47.000Z,3129
2023-02-15T15:26:02.000Z,3060
2023-02-15T15:27:18.000Z,2992
2023-02-15T15:28:35.000Z,2941
2023-02-15T15:29:51.000Z,2872
2023-02-15T15:31:07.000Z,2828
2023-02-15T15:32:23.000Z,2785
2023-02-15T15:33:40.000Z,2747
2023-02-15T15:34:56.000Z,2701
2023-02-15T15:36:12.000Z,2670
2023-02-15T15:37:28.000Z,2620
2023-02-15T15:38:45.000Z,2577
2023-02-15T15:40:01.000Z,2534
2023-02-15T15:41:17.000Z,2492
2023-02-15T15:42:32.000Z,2445
2023-02-15T15:43:49.000Z,2399
2023-02-15T15:45:05.000Z,2356
2023-02-15T15:46:21.000Z,2299
2023-02-15T15:47:37.000Z,2245
2023-02-15T15:48:53.000Z,2178
2023-02-15T15:50:10.000Z,2093
2023-02-15T15:51:26.000Z,2013
2023-02-15T15:52:42.000Z,1932
2023-02-15T15:53:58.000Z,1855
2023-02-15T15:55:15.000Z,1778
2023-02-15T15:56:31.000Z,1703
2023-02-15T15:57:47.000Z,1639
2023-02-15T15:59:02.000Z,1582
2023-02-15T16:00:19.000Z,1526
2023-02-15T16:01:35.000Z,1485
2023-02-15T16:02:51.000Z,1432
2023-02-15T16:04:07.000Z,1387
2023-02-15T16:05:24.000Z,1338
2023-02-15T16:06:40.000Z,1295
2023-02-15T16:07:56.000Z,1252
2023-02-15T16:09:12.000Z,1210
2023-02-15T16:10:28.000Z,1167
2023-02-15T16:11:45.000Z,1125
2023-02-15T16:13:01.000Z,1079
2023-02-15T16:14:17.000Z,1025
2023-02-15T16:15:32.000Z,974
2023-02-15T16:16:49.000Z,925
2023-02-15T16:18:05.000Z,870
2023-02-15T16:19:21.000Z,823
2023-02-15T16:20:37.000Z,777
2023-02-15T16:21:54.000Z,731
2023-02-15T16:23:10.000Z,690
2023-02-15T16:24:26.000Z,647
2023-02-15T16:25:42.000Z,606
2023-02-15T16:26:58.000Z,572
2023-02-15T16:28:15.000Z,536
2023-02-15T16:29:31.000Z,500
2023-02-15T16:30:47.000Z,462
2023-02-15T16:32:02.000Z,416
2023-02-15T16:33:19.000Z,378
2023-02-15T16:34:34.000Z,336
2023-02-15T16:35:49.000Z,300
2023-02-15T16:37:04.000Z,268
2023-02-15T16:38:20.000Z,236
2023-02-15T16:39:36.000Z,211
2023-02-15T16:40:52.000Z,189
2023-02-15T16:42:08.000Z,171
2023-02-15T16:44:41.000Z,148
2023-02-15T16:45:57.000Z,138
2023-02-15T16:47:13.000Z,128
2023-02-15T16:48:30.000Z,119
2023-02-15T16:49:46.000Z,102
2023-02-15T16:51:02.000Z,87
2023-02-15T16:52:18.000Z,70
2023-02-15T16:53:35.000Z,53
2023-02-15T16:54:50.000Z,39
2023-02-15T16:56:06.000Z,41
2023-02-15T16:57:22.000Z,45
2023-02-15T16:58:38.000Z,42
2023-02-15T16:59:55.000Z,45
2023-02-15T17:01:11.000Z,35
2023-02-15T17:02:27.000Z,11
2023-02-15T17:03:43.000Z,219
2023-02-15T17:05:00.000Z,212
2023-02-15T17:06:16.000Z,206
2023-02-15T17:07:32.000Z,203
2023-02-15T17:08:48.000Z,203
2023-02-15T17:10:05.000Z,201
2023-02-15T17:11:20.000Z,202
2023-02-15T17:12:36.000Z,197
2023-02-15T17:13:52.000Z,192
2023-02-15T17:15:09.000Z,191
2023-02-15T17:16:25.000Z,193
2023-02-15T17:17:41.000Z,190
2023-02-15T17:18:57.000Z,188
2023-02-15T17:20:13.000Z,188
2023-02-15T17:21:30.000Z,191